Wetterdaten: Woche 01.05.17 - 07.05.17 (KW18)
Datum Zeit Temp. I. Temp. A. Feuchte I. Feuchte A. Luftdruck Regen Wind Richtung Sonnenschein UV Solar Taupunkt Windchill Windben
01.05.2017 00:00 24,0 C 8,2 C 50 % 67 % 1010,6 hPa 0,0 l/m 6,8 km/h (2 Bft) O-NO 0,00 h 0,0 UV-I 0 W/m 2,3 C 7,0 C 15,3 km/h (3 Bft)
01.05.2017 01:00 23,8 C 7,7 C 50 % 69 % 1010,1 hPa 0,0 l/m 6,3 km/h (2 Bft) O-NO 0,00 h 0,0 UV-I 0 W/m 2,3 C 6,8 C 14,8 km/h (3 Bft)
01.05.2017 02:00 23,7 C 6,9 C 50 % 73 % 1009,7 hPa 0,0 l/m 5,7 km/h (1 Bft) O 0,00 h 0,0 UV-I 0 W/m 2,4 C 5,9 C 11,3 km/h (2 Bft)
01.05.2017 03:00 23,6 C 6,5 C 51 % 75 % 1009,0 hPa 0,0 l/m 3,6 km/h (1 Bft) O-NO 0,00 h 0,0 UV-I 0 W/m 2,4 C 6,2 C 8,5 km/h (2 Bft)
01.05.2017 04:00 23,6 C 5,9 C 51 % 78 % 1008,8 hPa 0,0 l/m 3,5 km/h (1 Bft) O-NO 0,00 h 0,0 UV-I 0 W/m 2,4 C 5,7 C 8,6 km/h (2 Bft)
01.05.2017 05:00 23,5 C 5,1 C 51 % 81 % 1008,9 hPa 0,0 l/m 4,0 km/h (1 Bft) O-NO 0,00 h 0,0 UV-I 8 W/m 2,2 C 4,8 C 8,8 km/h (2 Bft)
01.05.2017 06:00 23,4 C 4,9 C 51 % 82 % 1008,8 hPa 0,0 l/m 3,5 km/h (1 Bft) O-NO 0,00 h 0,0 UV-I 36 W/m 2,2 C 4,7 C 8,8 km/h (2 Bft)
01.05.2017 07:00 23,4 C 6,2 C 51 % 79 % 1009,1 hPa 0,0 l/m 1,2 km/h (1 Bft) O-NO 0,75 h 0,6 UV-I 196 W/m 2,9 C 6,2 C 4,0 km/h (1 Bft)
01.05.2017 08:00 23,7 C 8,2 C 53 % 73 % 1008,9 hPa 0,0 l/m 2,4 km/h (1 Bft) O 1,00 h 1,2 UV-I 389 W/m 3,6 C 8,0 C 6,9 km/h (2 Bft)
01.05.2017 09:00 23,8 C 9,8 C 52 % 69 % 1009,0 hPa 0,0 l/m 5,3 km/h (1 Bft) O 1,00 h 2,1 UV-I 500 W/m 4,4 C 9,2 C 12,4 km/h (3 Bft)
01.05.2017 10:00 23,7 C 11,3 C 47 % 66 % 1009,3 hPa 0,0 l/m 4,9 km/h (1 Bft) O 1,00 h 3,3 UV-I 668 W/m 5,2 C 10,7 C 11,6 km/h (2 Bft)
01.05.2017 11:00 23,5 C 12,6 C 45 % 63 % 1009,7 hPa 0,0 l/m 2,3 km/h (1 Bft) O 1,00 h 3,7 UV-I 631 W/m 5,8 C 12,5 C 6,8 km/h (2 Bft)
01.05.2017 12:00 23,4 C 13,6 C 43 % 61 % 1009,7 hPa 0,0 l/m 2,1 km/h (1 Bft) O-NO 1,00 h 3,5 UV-I 513 W/m 6,1 C 13,4 C 6,1 km/h (2 Bft)
01.05.2017 13:00 23,6 C 15,4 C 44 % 57 % 1009,7 hPa 0,0 l/m 1,0 km/h (0 Bft) O-NO 1,00 h 4,6 UV-I 717 W/m 6,9 C 15,4 C 3,8 km/h (1 Bft)
01.05.2017 14:00 24,0 C 16,6 C 45 % 54 % 1009,5 hPa 0,0 l/m 1,8 km/h (1 Bft) O-NO 1,00 h 3,6 UV-I 562 W/m 7,2 C 16,5 C 5,5 km/h (1 Bft)
01.05.2017 15:00 24,3 C 15,8 C 47 % 52 % 1009,4 hPa 0,0 l/m 1,2 km/h (1 Bft) O-SO 1,00 h 2,3 UV-I 321 W/m 6,0 C 15,8 C 4,2 km/h (1 Bft)
01.05.2017 16:00 24,3 C 15,4 C 47 % 51 % 1009,4 hPa 0,0 l/m 1,3 km/h (1 Bft) SO 0,72 h 1,4 UV-I 191 W/m 5,4 C 15,4 C 3,2 km/h (1 Bft)
01.05.2017 17:00 24,2 C 15,2 C 48 % 53 % 1009,8 hPa 0,0 l/m 0,1 km/h (0 Bft) NO 0,00 h 0,6 UV-I 88 W/m 5,8 C 15,2 C 0,2 km/h (0 Bft)
01.05.2017 18:00 24,3 C 14,8 C 49 % 57 % 1009,8 hPa 0,0 l/m 0,2 km/h (0 Bft) O-NO 0,00 h 0,4 UV-I 57 W/m 6,3 C 14,8 C 0,8 km/h (0 Bft)
01.05.2017 19:00 24,3 C 14,2 C 48 % 61 % 1009,9 hPa 0,0 l/m 0,5 km/h (0 Bft) O-NO 0,00 h 0,0 UV-I 42 W/m 6,7 C 14,2 C 2,1 km/h (1 Bft)
01.05.2017 20:00 24,3 C 13,2 C 48 % 63 % 1010,5 hPa 0,0 l/m 0,4 km/h (0 Bft) W 0,00 h 0,0 UV-I 5 W/m 6,4 C 13,2 C 1,5 km/h (1 Bft)
01.05.2017 21:00 24,3 C 11,9 C 50 % 69 % 1011,0 hPa 0,0 l/m 0,6 km/h (0 Bft) NW 0,00 h 0,0 UV-I 0 W/m 6,5 C 11,9 C 1,5 km/h (1 Bft)
01.05.2017 22:00 24,3 C 10,0 C 50 % 81 % 1011,3 hPa 0,0 l/m 0,4 km/h (0 Bft) SO 0,00 h 0,0 UV-I 0 W/m 6,8 C 10,0 C 0,7 km/h (0 Bft)
01.05.2017 23:00 24,1 C 8,8 C 50 % 87 % 1011,3 hPa 0,0 l/m 0,0 km/h (0 Bft) N 0,00 h 0,0 UV-I 0 W/m 6,8 C 8,8 C 0,0 km/h (0 Bft)
02.05.2017 00:00 23,9 C 8,3 C 50 % 89 % 1011,1 hPa 0,0 l/m 0,0 km/h (0 Bft) N 0,00 h 0,0 UV-I 0 W/m 6,6 C 8,3 C 0,0 km/h (0 Bft)
02.05.2017 01:00 23,8 C 8,0 C 50 % 90 % 1010,8 hPa 0,0 l/m 0,0 km/h (0 Bft) N 0,00 h 0,0 UV-I 0 W/m 6,5 C 8,0 C 0,0 km/h (0 Bft)
02.05.2017 02:00 23,8 C 7,9 C 51 % 93 % 1010,4 hPa 0,8 l/m 0,0 km/h (0 Bft) N 0,00 h 0,0 UV-I 0 W/m 6,8 C 7,9 C 0,0 km/h (0 Bft)
02.05.2017 03:00 23,7 C 7,6 C 51 % 94 % 1010,2 hPa 1,0 l/m 2,5 km/h (1 Bft) S-SO 0,00 h 0,0 UV-I 0 W/m 6,7 C 7,1 C 4,9 km/h (1 Bft)
02.05.2017 04:00 23,6 C 6,5 C 51 % 93 % 1010,3 hPa 1,8 l/m 1,5 km/h (1 Bft) SO 0,00 h 0,0 UV-I 0 W/m 5,4 C 6,5 C 4,6 km/h (1 Bft)
02.05.2017 05:00 23,6 C 5,7 C 51 % 93 % 1010,3 hPa 0,6 l/m 4,4 km/h (1 Bft) S-SO 0,00 h 0,0 UV-I 0 W/m 4,7 C 5,2 C 8,3 km/h (2 Bft)
02.05.2017 06:00 23,6 C 5,0 C 51 % 93 % 1010,5 hPa 0,4 l/m 5,9 km/h (2 Bft) SO 0,00 h 0,0 UV-I 21 W/m 4,0 C 4,3 C 10,9 km/h (2 Bft)
02.05.2017 07:00 23,7 C 4,8 C 52 % 94 % 1010,8 hPa 0,0 l/m 7,7 km/h (2 Bft) S-SO 0,00 h 0,0 UV-I 34 W/m 3,9 C 3,2 C 13,6 km/h (3 Bft)
02.05.2017 08:00 23,7 C 4,3 C 52 % 94 % 1011,4 hPa 0,0 l/m 8,8 km/h (2 Bft) S-SO 0,00 h 0,5 UV-I 64 W/m 3,3 C 1,9 C 15,3 km/h (3 Bft)
02.05.2017 09:00 23,7 C 4,3 C 52 % 93 % 1011,6 hPa 0,0 l/m 5,6 km/h (1 Bft) S-SO 0,00 h 0,6 UV-I 81 W/m 3,2 C 3,5 C 11,7 km/h (2 Bft)
02.05.2017 10:00 23,8 C 4,6 C 52 % 92 % 1012,0 hPa 0,0 l/m 6,0 km/h (2 Bft) S-SO 0,00 h 0,7 UV-I 92 W/m 3,4 C 3,5 C 12,5 km/h (3 Bft)
02.05.2017 11:00 23,8 C 5,1 C 52 % 91 % 1012,3 hPa 0,0 l/m 7,4 km/h (2 Bft) S-SO 0,47 h 1,2 UV-I 159 W/m 3,7 C 3,5 C 13,7 km/h (3 Bft)
02.05.2017 12:00 24,0 C 5,5 C 52 % 91 % 1012,6 hPa 0,0 l/m 10,2 km/h (2 Bft) S-SO 0,38 h 1,1 UV-I 145 W/m 4,0 C 2,5 C 18,2 km/h (3 Bft)
02.05.2017 13:00 24,2 C 5,8 C 52 % 91 % 1013,0 hPa 0,2 l/m 11,6 km/h (2 Bft) S 0,88 h 1,7 UV-I 241 W/m 4,4 C 2,1 C 19,2 km/h (3 Bft)
02.05.2017 14:00 24,5 C 6,6 C 53 % 91 % 1013,5 hPa 0,0 l/m 12,3 km/h (3 Bft) S-SO 0,95 h 1,8 UV-I 255 W/m 5,2 C 2,6 C 19,3 km/h (3 Bft)
02.05.2017 15:00 24,6 C 6,9 C 53 % 91 % 1014,2 hPa 0,0 l/m 10,7 km/h (2 Bft) S 0,70 h 1,2 UV-I 169 W/m 5,5 C 3,6 C 18,1 km/h (3 Bft)
02.05.2017 16:00 24,5 C 7,0 C 53 % 90 % 1014,9 hPa 0,2 l/m 10,9 km/h (2 Bft) S-SO 0,05 h 0,6 UV-I 72 W/m 5,6 C 3,8 C 16,8 km/h (3 Bft)
02.05.2017 17:00 24,6 C 7,3 C 54 % 91 % 1015,6 hPa 0,0 l/m 6,1 km/h (2 Bft) S-SO 0,00 h 0,5 UV-I 67 W/m 5,9 C 6,2 C 11,5 km/h (2 Bft)
02.05.2017 18:00 24,6 C 7,6 C 55 % 90 % 1016,1 hPa 0,0 l/m 3,7 km/h (1 Bft) S-SO 0,00 h 0,0 UV-I 30 W/m 6,0 C 7,3 C 8,9 km/h (2 Bft)
02.05.2017 19:00 24,6 C 7,8 C 56 % 89 % 1016,7 hPa 0,0 l/m 1,8 km/h (1 Bft) S-SO 0,00 h 0,0 UV-I 18 W/m 6,1 C 7,8 C 5,0 km/h (1 Bft)
02.05.2017 20:00 24,7 C 7,4 C 56 % 89 % 1017,4 hPa 0,0 l/m 0,1 km/h (0 Bft) S-SO 0,00 h 0,0 UV-I 6 W/m 5,7 C 7,4 C 0,8 km/h (0 Bft)
02.05.2017 21:00 24,8 C 6,5 C 55 % 90 % 1017,9 hPa 0,0 l/m 0,0 km/h (0 Bft) N 0,00 h 0,0 UV-I 0 W/m 5,0 C 6,5 C 0,0 km/h (0 Bft)
02.05.2017 22:00 24,6 C 5,4 C 55 % 91 % 1018,1 hPa 0,0 l/m 0,0 km/h (0 Bft) N 0,00 h 0,0 UV-I 0 W/m 4,0 C 5,4 C 0,0 km/h (0 Bft)
02.05.2017 23:00 24,3 C 4,6 C 55 % 92 % 1018,6 hPa 0,0 l/m 0,0 km/h (0 Bft) N 0,00 h 0,0 UV-I 0 W/m 3,4 C 4,6 C 0,0 km/h (0 Bft)
03.05.2017 00:00 24,1 C 3,5 C 55 % 91 % 1019,0 hPa 0,0 l/m 0,0 km/h (0 Bft) N 0,00 h 0,0 UV-I 0 W/m 2,3 C 3,5 C 0,0 km/h (0 Bft)
03.05.2017 01:00 24,0 C 2,8 C 55 % 92 % 1019,2 hPa 0,0 l/m 0,0 km/h (0 Bft) N 0,00 h 0,0 UV-I 0 W/m 1,6 C 2,8 C 0,0 km/h (0 Bft)
03.05.2017 02:00 23,9 C 2,2 C 55 % 93 % 1019,3 hPa 0,0 l/m 0,0 km/h (0 Bft) N 0,00 h 0,0 UV-I 0 W/m 1,2 C 2,2 C 0,0 km/h (0 Bft)
03.05.2017 03:00 23,9 C 2,0 C 55 % 94 % 1019,4 hPa 0,0 l/m 0,0 km/h (0 Bft) N 0,00 h 0,0 UV-I 0 W/m 1,2 C 2,0 C 0,0 km/h (0 Bft)
03.05.2017 04:00 23,8 C 1,6 C 55 % 94 % 1019,1 hPa 0,0 l/m 0,0 km/h (0 Bft) N 0,00 h 0,0 UV-I 0 W/m 0,8 C 1,6 C 0,0 km/h (0 Bft)
03.05.2017 05:00 23,7 C 1,8 C 55 % 95 % 1019,1 hPa 0,0 l/m 0,0 km/h (0 Bft) N 0,00 h 0,0 UV-I 10 W/m 1,0 C 1,8 C 0,0 km/h (0 Bft)
03.05.2017 06:00 23,7 C 2,7 C 55 % 95 % 1019,2 hPa 0,0 l/m 0,1 km/h (0 Bft) NO 0,00 h 0,0 UV-I 16 W/m 2,0 C 2,7 C 0,6 km/h (0 Bft)
03.05.2017 07:00 23,8 C 6,5 C 55 % 92 % 1019,0 hPa 0,0 l/m 3,2 km/h (1 Bft) O-NO 0,78 h 0,6 UV-I 209 W/m 5,2 C 6,4 C 8,1 km/h (2 Bft)
03.05.2017 08:00 23,8 C 10,5 C 54 % 79 % 1018,9 hPa 0,0 l/m 3,1 km/h (1 Bft) N-NO 1,00 h 1,2 UV-I 414 W/m 7,0 C 10,4 C 7,8 km/h (2 Bft)
03.05.2017 09:00 24,0 C 12,8 C 54 % 70 % 1018,8 hPa 0,0 l/m 3,4 km/h (1 Bft) O-NO 1,00 h 2,1 UV-I 481 W/m 7,5 C 12,7 C 8,0 km/h (2 Bft)
03.05.2017 10:00 24,1 C 13,5 C 54 % 67 % 1018,8 hPa 0,0 l/m 2,9 km/h (1 Bft) O-NO 1,00 h 2,4 UV-I 397 W/m 7,4 C 13,4 C 8,9 km/h (2 Bft)
03.05.2017 11:00 24,1 C 14,3 C 54 % 60 % 1018,8 hPa 0,0 l/m 6,0 km/h (2 Bft) O-NO 1,00 h 3,0 UV-I 436 W/m 6,5 C 13,6 C 13,8 km/h (3 Bft)
03.05.2017 12:00 24,2 C 14,0 C 54 % 57 % 1018,8 hPa 0,0 l/m 5,8 km/h (2 Bft) O-NO 1,00 h 2,3 UV-I 314 W/m 5,5 C 13,4 C 13,6 km/h (3 Bft)
03.05.2017 13:00 24,2 C 14,3 C 55 % 58 % 1018,5 hPa 0,0 l/m 5,1 km/h (1 Bft) O-NO 1,00 h 2,6 UV-I 358 W/m 6,1 C 13,8 C 12,6 km/h (3 Bft)
03.05.2017 14:00 24,3 C 15,4 C 55 % 58 % 1018,0 hPa 0,0 l/m 4,3 km/h (1 Bft) O-NO 1,00 h 2,8 UV-I 413 W/m 7,2 C 14,9 C 9,7 km/h (2 Bft)
03.05.2017 15:00 24,3 C 16,3 C 49 % 56 % 1017,3 hPa 0,0 l/m 3,6 km/h (1 Bft) N-NO 1,00 h 2,5 UV-I 410 W/m 7,4 C 16,0 C 8,5 km/h (2 Bft)
03.05.2017 16:00 23,9 C 16,1 C 48 % 52 % 1016,8 hPa 0,0 l/m 4,9 km/h (1 Bft) O-NO 1,00 h 1,5 UV-I 251 W/m 6,3 C 15,5 C 9,6 km/h (2 Bft)
03.05.2017 17:00 24,3 C 16,1 C 47 % 49 % 1016,3 hPa 0,0 l/m 2,2 km/h (1 Bft) O-NO 0,68 h 1,0 UV-I 195 W/m 5,4 C 16,0 C 6,4 km/h (2 Bft)
03.05.2017 18:00 24,5 C 15,2 C 49 % 53 % 1016,0 hPa 0,0 l/m 0,5 km/h (0 Bft) N-NO 0,00 h 0,5 UV-I 81 W/m 5,7 C 15,2 C 1,6 km/h (1 Bft)
03.05.2017 19:00 24,6 C 14,0 C 50 % 58 % 1016,0 hPa 0,0 l/m 2,1 km/h (1 Bft) S 0,00 h 0,0 UV-I 16 W/m 5,8 C 13,9 C 4,1 km/h (1 Bft)
03.05.2017 20:00 24,6 C 10,9 C 51 % 77 % 1016,6 hPa 1,0 l/m 0,7 km/h (0 Bft) S 0,00 h 0,0 UV-I 5 W/m 6,9 C 10,9 C 2,4 km/h (1 Bft)
03.05.2017 21:00 24,6 C 9,7 C 52 % 92 % 1016,3 hPa 0,0 l/m 0,2 km/h (0 Bft) O-NO 0,00 h 0,0 UV-I 0 W/m 8,4 C 9,7 C 1,7 km/h (1 Bft)
03.05.2017 22:00 24,6 C 9,4 C 52 % 91 % 1016,5 hPa 0,0 l/m 0,2 km/h (0 Bft) O-NO 0,00 h 0,0 UV-I 0 W/m 7,9 C 9,4 C 0,6 km/h (0 Bft)
03.05.2017 23:00 24,3 C 8,6 C 52 % 90 % 1016,4 hPa 0,0 l/m 0,0 km/h (0 Bft) N 0,00 h 0,0 UV-I 0 W/m 7,1 C 8,6 C 0,0 km/h (0 Bft)
04.05.2017 00:00 24,1 C 7,2 C 52 % 94 % 1016,2 hPa 0,0 l/m 0,0 km/h (0 Bft) N 0,00 h 0,0 UV-I 0 W/m 6,3 C 7,2 C 0,0 km/h (0 Bft)
04.05.2017 01:00 24,0 C 6,1 C 53 % 95 % 1015,9 hPa 0,0 l/m 0,0 km/h (0 Bft) N 0,00 h 0,0 UV-I 0 W/m 5,4 C 6,1 C 0,0 km/h (0 Bft)
04.05.2017 02:00 23,9 C 5,4 C 53 % 95 % 1015,7 hPa 0,0 l/m 0,0 km/h (0 Bft) N 0,00 h 0,0 UV-I 0 W/m 4,7 C 5,4 C 0,1 km/h (0 Bft)
04.05.2017 03:00 23,8 C 4,8 C 53 % 96 % 1015,5 hPa 0,0 l/m 0,0 km/h (0 Bft) N 0,00 h 0,0 UV-I 0 W/m 4,2 C 4,8 C 0,0 km/h (0 Bft)
04.05.2017 04:00 23,8 C 5,1 C 53 % 96 % 1015,3 hPa 0,0 l/m 0,1 km/h (0 Bft) N 0,00 h 0,0 UV-I 0 W/m 4,5 C 5,1 C 0,1 km/h (0 Bft)
04.05.2017 05:00 23,7 C 5,4 C 53 % 96 % 1015,1 hPa 0,0 l/m 0,3 km/h (0 Bft) N 0,00 h 0,0 UV-I 0 W/m 4,9 C 5,4 C 1,1 km/h (1 Bft)
04.05.2017 06:00 23,7 C 6,2 C 54 % 97 % 1015,3 hPa 0,0 l/m 0,0 km/h (0 Bft) N 0,00 h 0,0 UV-I 10 W/m 5,8 C 6,2 C 0,0 km/h (0 Bft)
04.05.2017 07:00 23,8 C 7,7 C 54 % 97 % 1015,1 hPa 0,0 l/m 0,5 km/h (0 Bft) N-NW 0,00 h 0,0 UV-I 35 W/m 7,2 C 7,7 C 1,0 km/h (0 Bft)
04.05.2017 08:00 23,8 C 9,0 C 54 % 97 % 1014,8 hPa 0,0 l/m 0,2 km/h (0 Bft) N-NO 0,00 h 0,6 UV-I 63 W/m 8,4 C 9,0 C 0,5 km/h (0 Bft)
04.05.2017 09:00 23,9 C 10,4 C 54 % 92 % 1014,5 hPa 0,0 l/m 0,9 km/h (0 Bft) O-NO 0,17 h 0,8 UV-I 128 W/m 9,1 C 10,4 C 2,2 km/h (1 Bft)
04.05.2017 10:00 24,1 C 11,2 C 54 % 86 % 1014,3 hPa 0,0 l/m 0,4 km/h (0 Bft) SO 0,98 h 1,6 UV-I 260 W/m 9,0 C 11,2 C 1,2 km/h (1 Bft)
04.05.2017 11:00 24,3 C 12,5 C 53 % 81 % 1014,2 hPa 0,0 l/m 0,2 km/h (0 Bft) O 1,00 h 2,2 UV-I 305 W/m 9,2 C 12,5 C 1,0 km/h (0 Bft)
04.05.2017 12:00 24,3 C 13,9 C 53 % 76 % 1014,1 hPa 0,0 l/m 1,3 km/h (1 Bft) N-NO 1,00 h 2,5 UV-I 341 W/m 9,6 C 13,9 C 4,3 km/h (1 Bft)
04.05.2017 13:00 24,3 C 14,1 C 54 % 74 % 1013,5 hPa 0,0 l/m 0,8 km/h (0 Bft) N-NO 0,80 h 1,9 UV-I 229 W/m 9,6 C 14,1 C 2,9 km/h (1 Bft)
04.05.2017 14:00 24,5 C 13,5 C 54 % 76 % 1013,0 hPa 0,0 l/m 1,1 km/h (1 Bft) W-NW 0,00 h 0,9 UV-I 108 W/m 9,3 C 13,5 C 2,8 km/h (1 Bft)
04.05.2017 15:00 24,6 C 10,2 C 54 % 88 % 1013,2 hPa 9,4 l/m 7,3 km/h (2 Bft) N-NO 0,37 h 1,4 UV-I 144 W/m 8,3 C 8,9 C 13,4 km/h (3 Bft)
04.05.2017 16:00 24,5 C 9,6 C 54 % 92 % 1013,8 hPa 0,8 l/m 3,8 km/h (1 Bft) N-NO 0,03 h 0,6 UV-I 59 W/m 8,3 C 9,3 C 8,7 km/h (2 Bft)
04.05.2017 17:00 24,5 C 8,7 C 54 % 94 % 1014,2 hPa 2,6 l/m 3,8 km/h (1 Bft) N-NO 0,00 h 0,0 UV-I 15 W/m 7,7 C 8,1 C 7,7 km/h (2 Bft)
04.05.2017 18:00 24,6 C 8,4 C 54 % 95 % 1014,0 hPa 3,0 l/m 0,9 km/h (0 Bft) N-NW 0,00 h 0,0 UV-I 23 W/m 7,7 C 8,3 C 1,7 km/h (1 Bft)
04.05.2017 19:00 24,7 C 8,3 C 55 % 96 % 1013,9 hPa 0,2 l/m 0,5 km/h (0 Bft) N-NW 0,00 h 0,0 UV-I 22 W/m 7,7 C 8,3 C 1,0 km/h (0 Bft)
04.05.2017 20:00 24,7 C 8,3 C 56 % 96 % 1014,3 hPa 0,0 l/m 4,1 km/h (1 Bft) N-NW 0,00 h 0,0 UV-I 7 W/m 7,7 C 7,4 C 7,2 km/h (2 Bft)
04.05.2017 21:00 24,8 C 8,3 C 55 % 96 % 1015,0 hPa 0,0 l/m 2,4 km/h (1 Bft) N 0,00 h 0,0 UV-I 0 W/m 7,7 C 7,9 C 4,5 km/h (1 Bft)
04.05.2017 22:00 24,8 C 8,1 C 55 % 96 % 1015,2 hPa 0,0 l/m 1,9 km/h (1 Bft) N-NW 0,00 h 0,0 UV-I 0 W/m 7,5 C 8,1 C 4,9 km/h (1 Bft)
04.05.2017 23:00 24,5 C 7,8 C 55 % 96 % 1015,5 hPa 0,0 l/m 1,4 km/h (1 Bft) N 0,00 h 0,0 UV-I 0 W/m 7,2 C 7,8 C 3,8 km/h (1 Bft)
05.05.2017 00:00 24,3 C 7,6 C 55 % 96 % 1015,7 hPa 0,0 l/m 0,1 km/h (0 Bft) N 0,00 h 0,0 UV-I 0 W/m 7,0 C 7,6 C 0,7 km/h (0 Bft)
05.05.2017 01:00 24,1 C 7,5 C 55 % 96 % 1015,8 hPa 0,0 l/m 0,1 km/h (0 Bft) W-NW 0,00 h 0,0 UV-I 0 W/m 6,9 C 7,5 C 0,3 km/h (0 Bft)
05.05.2017 02:00 24,0 C 7,4 C 55 % 96 % 1015,8 hPa 0,0 l/m 0,0 km/h (0 Bft) N 0,00 h 0,0 UV-I 0 W/m 6,8 C 7,4 C 0,0 km/h (0 Bft)
05.05.2017 03:00 24,1 C 7,2 C 56 % 96 % 1015,9 hPa 0,0 l/m 0,0 km/h (0 Bft) N 0,00 h 0,0 UV-I 0 W/m 6,7 C 7,2 C 0,0 km/h (0 Bft)
05.05.2017 04:00 24,0 C 7,1 C 56 % 96 % 1016,1 hPa 0,0 l/m 0,8 km/h (0 Bft) NW 0,00 h 0,0 UV-I 0 W/m 6,5 C 7,1 C 2,2 km/h (1 Bft)
05.05.2017 05:00 23,9 C 6,9 C 56 % 96 % 1016,3 hPa 0,0 l/m 0,7 km/h (0 Bft) N 0,00 h 0,0 UV-I 0 W/m 6,3 C 6,9 C 2,0 km/h (1 Bft)
05.05.2017 06:00 23,8 C 6,9 C 56 % 96 % 1016,8 hPa 0,0 l/m 0,4 km/h (0 Bft) N 0,00 h 0,0 UV-I 7 W/m 6,3 C 6,9 C 1,3 km/h (1 Bft)
05.05.2017 07:00 23,8 C 7,0 C 56 % 96 % 1017,3 hPa 0,0 l/m 1,2 km/h (1 Bft) N 0,00 h 0,0 UV-I 29 W/m 6,4 C 7,0 C 2,7 km/h (1 Bft)
05.05.2017 08:00 23,9 C 7,5 C 56 % 96 % 1017,6 hPa 0,2 l/m 2,1 km/h (1 Bft) N 0,00 h 0,7 UV-I 100 W/m 6,9 C 7,5 C 4,0 km/h (1 Bft)
05.05.2017 09:00 24,1 C 8,2 C 56 % 95 % 1017,7 hPa 0,0 l/m 2,7 km/h (1 Bft) N 0,45 h 0,8 UV-I 135 W/m 7,4 C 8,2 C 5,5 km/h (1 Bft)
05.05.2017 10:00 24,1 C 9,5 C 56 % 90 % 1017,8 hPa 0,0 l/m 2,2 km/h (1 Bft) N-NO 1,00 h 1,6 UV-I 270 W/m 8,0 C 9,5 C 4,5 km/h (1 Bft)
05.05.2017 11:00 24,1 C 9,8 C 56 % 88 % 1018,1 hPa 0,0 l/m 1,1 km/h (1 Bft) N-NO 0,82 h 1,4 UV-I 184 W/m 7,9 C 9,8 C 2,5 km/h (1 Bft)
05.05.2017 12:00 24,2 C 10,9 C 56 % 83 % 1018,4 hPa 0,0 l/m 1,0 km/h (0 Bft) W-SW 1,00 h 3,0 UV-I 417 W/m 8,1 C 10,9 C 2,2 km/h (1 Bft)
05.05.2017 13:00 24,3 C 11,6 C 56 % 79 % 1018,5 hPa 0,0 l/m 4,4 km/h (1 Bft) W-NW 1,00 h 2,6 UV-I 338 W/m 8,1 C 11,5 C 8,2 km/h (2 Bft)
05.05.2017 14:00 24,5 C 11,8 C 56 % 77 % 1018,6 hPa 0,0 l/m 3,9 km/h (1 Bft) W-NW 0,78 h 1,8 UV-I 251 W/m 8,0 C 11,8 C 8,1 km/h (2 Bft)
05.05.2017 15:00 24,5 C 11,0 C 56 % 81 % 1018,8 hPa 0,0 l/m 2,9 km/h (1 Bft) W-NW 0,00 h 0,8 UV-I 95 W/m 7,8 C 10,9 C 5,7 km/h (1 Bft)
05.05.2017 16:00 24,5 C 10,7 C 56 % 82 % 1019,0 hPa 0,0 l/m 0,9 km/h (0 Bft) W-NW 0,00 h 0,6 UV-I 81 W/m 7,8 C 10,7 C 2,2 km/h (1 Bft)
05.05.2017 17:00 24,5 C 11,0 C 55 % 82 % 1018,9 hPa 0,0 l/m 1,1 km/h (1 Bft) NW 0,00 h 0,6 UV-I 92 W/m 8,1 C 11,0 C 2,1 km/h (1 Bft)
05.05.2017 18:00 24,6 C 10,6 C 56 % 85 % 1018,9 hPa 0,0 l/m 1,7 km/h (1 Bft) N-NO 0,00 h 0,0 UV-I 48 W/m 8,2 C 10,6 C 3,1 km/h (1 Bft)
05.05.2017 19:00 24,6 C 10,1 C 55 % 86 % 1019,0 hPa 0,0 l/m 0,8 km/h (0 Bft) N-NO 0,00 h 0,0 UV-I 28 W/m 8,0 C 10,1 C 1,5 km/h (1 Bft)
05.05.2017 20:00 24,7 C 9,5 C 56 % 89 % 1019,0 hPa 0,0 l/m 0,6 km/h (0 Bft) N-NO 0,00 h 0,0 UV-I 15 W/m 7,8 C 9,5 C 1,6 km/h (1 Bft)
05.05.2017 21:00 24,7 C 8,7 C 56 % 91 % 1019,0 hPa 0,0 l/m 0,4 km/h (0 Bft) N 0,00 h 0,0 UV-I 0 W/m 7,3 C 8,7 C 0,9 km/h (0 Bft)
05.05.2017 22:00 24,7 C 7,7 C 56 % 93 % 1018,9 hPa 0,0 l/m 0,0 km/h (0 Bft) N 0,00 h 0,0 UV-I 0 W/m 6,7 C 7,7 C 0,0 km/h (0 Bft)
05.05.2017 23:00 24,4 C 7,2 C 56 % 95 % 1018,8 hPa 0,0 l/m 0,0 km/h (0 Bft) N 0,00 h 0,0 UV-I 0 W/m 6,4 C 7,2 C 0,0 km/h (0 Bft)
06.05.2017 00:00 24,2 C 6,6 C 56 % 95 % 1018,5 hPa 0,0 l/m 0,0 km/h (0 Bft) N 0,00 h 0,0 UV-I 0 W/m 5,9 C 6,6 C 0,0 km/h (0 Bft)
06.05.2017 01:00 24,1 C 5,5 C 56 % 95 % 1017,9 hPa 0,0 l/m 0,0 km/h (0 Bft) N 0,00 h 0,0 UV-I 0 W/m 4,8 C 5,5 C 0,0 km/h (0 Bft)
06.05.2017 02:00 24,0 C 4,4 C 56 % 96 % 1017,4 hPa 0,0 l/m 0,0 km/h (0 Bft) N 0,00 h 0,0 UV-I 0 W/m 3,8 C 4,4 C 0,0 km/h (0 Bft)
06.05.2017 03:00 23,9 C 4,5 C 56 % 97 % 1017,0 hPa 0,0 l/m 0,1 km/h (0 Bft) O 0,00 h 0,0 UV-I 0 W/m 4,0 C 4,5 C 0,3 km/h (0 Bft)
06.05.2017 04:00 23,9 C 6,4 C 56 % 97 % 1016,4 hPa 0,0 l/m 0,1 km/h (0 Bft) NO 0,00 h 0,0 UV-I 0 W/m 5,9 C 6,4 C 0,5 km/h (0 Bft)
06.05.2017 05:00 23,9 C 4,9 C 56 % 96 % 1016,2 hPa 0,0 l/m 0,0 km/h (0 Bft) N 0,00 h 0,0 UV-I 0 W/m 4,3 C 4,9 C 0,0 km/h (0 Bft)
06.05.2017 06:00 23,8 C 5,1 C 55 % 97 % 1016,3 hPa 0,0 l/m 0,0 km/h (0 Bft) N 0,00 h 0,0 UV-I 22 W/m 4,7 C 5,1 C 0,0 km/h (0 Bft)
06.05.2017 07:00 23,7 C 8,2 C 55 % 94 % 1015,8 hPa 0,0 l/m 2,4 km/h (1 Bft) O-SO 0,28 h 0,6 UV-I 147 W/m 7,2 C 8,0 C 6,3 km/h (2 Bft)
06.05.2017 08:00 23,7 C 9,6 C 55 % 86 % 1015,6 hPa 0,0 l/m 4,4 km/h (1 Bft) O-SO 0,63 h 1,0 UV-I 186 W/m 7,3 C 9,4 C 10,0 km/h (2 Bft)
06.05.2017 09:00 23,9 C 10,6 C 55 % 82 % 1015,3 hPa 0,0 l/m 5,8 km/h (2 Bft) O-NO 1,00 h 1,6 UV-I 252 W/m 7,7 C 10,0 C 11,7 km/h (2 Bft)
06.05.2017 10:00 24,0 C 12,5 C 55 % 77 % 1014,6 hPa 0,0 l/m 4,4 km/h (1 Bft) O-NO 1,00 h 3,3 UV-I 554 W/m 8,6 C 12,3 C 10,6 km/h (2 Bft)
06.05.2017 11:00 24,1 C 14,2 C 55 % 72 % 1013,9 hPa 0,0 l/m 4,1 km/h (1 Bft) O-NO 1,00 h 4,4 UV-I 676 W/m 9,3 C 14,0 C 9,4 km/h (2 Bft)
06.05.2017 12:00 24,2 C 15,7 C 55 % 66 % 1012,8 hPa 0,0 l/m 5,1 km/h (1 Bft) O-SO 1,00 h 5,4 UV-I 844 W/m 9,3 C 15,3 C 11,3 km/h (2 Bft)
06.05.2017 13:00 24,2 C 17,0 C 54 % 61 % 1011,7 hPa 0,0 l/m 3,3 km/h (1 Bft) O-SO 1,00 h 5,6 UV-I 853 W/m 9,4 C 16,8 C 8,6 km/h (2 Bft)
06.05.2017 14:00 24,2 C 17,8 C 50 % 53 % 1010,6 hPa 0,0 l/m 3,3 km/h (1 Bft) SO 1,00 h 5,1 UV-I 807 W/m 8,1 C 17,7 C 8,9 km/h (2 Bft)
06.05.2017 15:00 24,4 C 18,6 C 49 % 49 % 1009,9 hPa 0,0 l/m 3,3 km/h (1 Bft) O-SO 1,00 h 4,1 UV-I 722 W/m 7,6 C 18,5 C 8,2 km/h (2 Bft)
06.05.2017 16:00 24,4 C 18,7 C 49 % 49 % 1009,1 hPa 0,0 l/m 3,8 km/h (1 Bft) O-NO 1,00 h 2,8 UV-I 589 W/m 7,8 C 18,5 C 9,4 km/h (2 Bft)
06.05.2017 17:00 24,1 C 18,4 C 47 % 51 % 1008,8 hPa 0,0 l/m 1,6 km/h (1 Bft) O-NO 0,93 h 1,8 UV-I 432 W/m 7,9 C 18,4 C 5,3 km/h (1 Bft)
06.05.2017 18:00 24,2 C 17,6 C 48 % 55 % 1008,3 hPa 0,0 l/m 1,7 km/h (1 Bft) O-NO 0,08 h 0,8 UV-I 90 W/m 8,4 C 17,6 C 5,9 km/h (2 Bft)
06.05.2017 19:00 24,5 C 16,0 C 50 % 65 % 1008,2 hPa 0,0 l/m 1,9 km/h (1 Bft) O-NO 0,00 h 0,0 UV-I 32 W/m 9,5 C 15,9 C 5,5 km/h (1 Bft)
06.05.2017 20:00 24,5 C 14,3 C 51 % 74 % 1008,3 hPa 0,0 l/m 0,1 km/h (0 Bft) N-NO 0,00 h 0,0 UV-I 14 W/m 9,6 C 14,3 C 0,8 km/h (0 Bft)
06.05.2017 21:00 24,6 C 12,7 C 51 % 79 % 1008,5 hPa 0,0 l/m 0,0 km/h (0 Bft) N 0,00 h 0,0 UV-I 0 W/m 9,2 C 12,7 C 0,0 km/h (0 Bft)
06.05.2017 22:00 24,9 C 10,7 C 52 % 86 % 1008,7 hPa 0,0 l/m 0,0 km/h (0 Bft) N 0,00 h 0,0 UV-I 0 W/m 8,5 C 10,7 C 0,0 km/h (0 Bft)
06.05.2017 23:00 24,6 C 9,4 C 52 % 90 % 1008,9 hPa 0,0 l/m 0,0 km/h (0 Bft) N 0,00 h 0,0 UV-I 0 W/m 7,9 C 9,4 C 0,0 km/h (0 Bft)
07.05.2017 00:00 24,3 C 8,5 C 52 % 92 % 1009,1 hPa 0,0 l/m 0,0 km/h (0 Bft) N 0,00 h 0,0 UV-I 0 W/m 7,2 C 8,5 C 0,0 km/h (0 Bft)
07.05.2017 01:00 24,2 C 7,8 C 53 % 93 % 1009,3 hPa 0,0 l/m 0,0 km/h (0 Bft) N 0,00 h 0,0 UV-I 0 W/m 6,8 C 7,8 C 0,0 km/h (0 Bft)
07.05.2017 02:00 24,1 C 6,9 C 53 % 94 % 1009,4 hPa 0,0 l/m 0,0 km/h (0 Bft) N 0,00 h 0,0 UV-I 0 W/m 6,0 C 6,9 C 0,0 km/h (0 Bft)
07.05.2017 03:00 24,0 C 6,1 C 53 % 95 % 1009,5 hPa 0,0 l/m 0,0 km/h (0 Bft) N 0,00 h 0,0 UV-I 0 W/m 5,3 C 6,1 C 0,0 km/h (0 Bft)
07.05.2017 04:00 23,9 C 5,6 C 53 % 95 % 1009,8 hPa 0,0 l/m 0,0 km/h (0 Bft) N 0,00 h 0,0 UV-I 0 W/m 4,8 C 5,6 C 0,0 km/h (0 Bft)
07.05.2017 05:00 23,9 C 5,6 C 54 % 95 % 1010,1 hPa 0,0 l/m 0,0 km/h (0 Bft) N 0,00 h 0,0 UV-I 11 W/m 4,9 C 5,6 C 0,0 km/h (0 Bft)
07.05.2017 06:00 23,8 C 5,9 C 54 % 95 % 1010,2 hPa 0,0 l/m 0,0 km/h (0 Bft) N 0,00 h 0,0 UV-I 36 W/m 5,2 C 5,9 C 0,0 km/h (0 Bft)
07.05.2017 07:00 23,9 C 8,0 C 54 % 95 % 1010,7 hPa 0,0 l/m 0,0 km/h (0 Bft) N 0,55 h 0,6 UV-I 169 W/m 7,2 C 8,0 C 0,0 km/h (0 Bft)
07.05.2017 08:00 24,1 C 11,0 C 55 % 87 % 1011,1 hPa 0,0 l/m 0,0 km/h (0 Bft) N 1,00 h 1,2 UV-I 337 W/m 9,0 C 11,0 C 0,0 km/h (0 Bft)
07.05.2017 09:00 24,3 C 13,4 C 55 % 82 % 1011,2 hPa 0,0 l/m 0,6 km/h (0 Bft) S 1,00 h 2,1 UV-I 487 W/m 10,3 C 13,4 C 1,2 km/h (1 Bft)
07.05.2017 10:00 24,4 C 14,9 C 56 % 76 % 1011,4 hPa 0,0 l/m 1,6 km/h (1 Bft) W 1,00 h 2,4 UV-I 428 W/m 10,7 C 14,9 C 3,8 km/h (1 Bft)
07.05.2017 11:00 24,3 C 15,8 C 54 % 74 % 1011,6 hPa 0,0 l/m 1,5 km/h (1 Bft) N-NW 1,00 h 2,1 UV-I 343 W/m 11,2 C 15,8 C 3,6 km/h (1 Bft)
07.05.2017 12:00 24,2 C 16,0 C 54 % 73 % 1011,5 hPa 0,0 l/m 5,1 km/h (1 Bft) S 1,00 h 2,5 UV-I 292 W/m 11,1 C 15,6 C 10,0 km/h (2 Bft)
07.05.2017 13:00 24,4 C 15,2 C 54 % 77 % 1011,3 hPa 0,0 l/m 4,2 km/h (1 Bft) W 0,60 h 1,7 UV-I 214 W/m 11,2 C 15,1 C 8,3 km/h (2 Bft)
07.05.2017 14:00 24,5 C 17,0 C 54 % 70 % 1010,9 hPa 0,0 l/m 5,5 km/h (1 Bft) W-SW 0,98 h 4,3 UV-I 668 W/m 11,6 C 16,7 C 11,3 km/h (2 Bft)
07.05.2017 15:00 24,5 C 15,6 C 54 % 75 % 1011,0 hPa 0,2 l/m 4,7 km/h (1 Bft) W-SW 0,73 h 2,3 UV-I 378 W/m 11,2 C 15,2 C 10,4 km/h (2 Bft)
07.05.2017 16:00 24,2 C 15,7 C 51 % 72 % 1010,8 hPa 0,0 l/m 6,5 km/h (2 Bft) W-SW 0,83 h 1,5 UV-I 202 W/m 10,6 C 14,9 C 12,5 km/h (3 Bft)
07.05.2017 17:00 24,4 C 14,3 C 52 % 79 % 1011,0 hPa 0,0 l/m 3,2 km/h (1 Bft) W 0,10 h 0,6 UV-I 82 W/m 10,6 C 14,2 C 7,8 km/h (2 Bft)
07.05.2017 18:00 24,4 C 13,8 C 52 % 80 % 1011,0 hPa 0,0 l/m 0,7 km/h (0 Bft) W-SW 0,00 h 0,5 UV-I 45 W/m 10,3 C 13,8 C 2,4 km/h (1 Bft)
07.05.2017 19:00 24,6 C 13,3 C 54 % 82 % 1011,2 hPa 0,0 l/m 0,0 km/h (0 Bft) N 0,00 h 0,0 UV-I 31 W/m 10,3 C 13,3 C 0,0 km/h (0 Bft)
07.05.2017 20:00 24,6 C 12,7 C 55 % 86 % 1011,5 hPa 0,0 l/m 0,0 km/h (0 Bft) N 0,00 h 0,0 UV-I 8 W/m 10,4 C 12,7 C 0,0 km/h (0 Bft)
07.05.2017 21:00 24,7 C 12,3 C 57 % 88 % 1012,2 hPa 0,0 l/m 0,0 km/h (0 Bft) N 0,00 h 0,0 UV-I 0 W/m 10,4 C 12,3 C 0,0 km/h (0 Bft)
07.05.2017 22:00 24,8 C 11,8 C 57 % 90 % 1012,4 hPa 0,0 l/m 0,0 km/h (0 Bft) N 0,00 h 0,0 UV-I 0 W/m 10,2 C 11,8 C 0,0 km/h (0 Bft)
07.05.2017 23:00 24,7 C 11,2 C 57 % 92 % 1012,4 hPa 0,2 l/m 0,0 km/h (0 Bft) N 0,00 h 0,0 UV-I 0 W/m 10,0 C 11,2 C 0,0 km/h (0 Bft)
Min-Datum _ 01.05.17 03.05.17 01.05.17 06.05.17 06.05.17 - 01.05.17 - - - - 03.05.17 02.05.17 01.05.17
_ Min-Zeit 12:25 05:16 12:21 15:44 19:19 - 00:24 - - - - 05:16 13:46 00:24
Minimum _ 23,3 C 1,5 C 42 % 42 % 1008,1 hPa - 0,0 km/h (0 Bft) - - - - 0,6 C -2,2 C 0,0 km/h (0 Bft)
Max-Datum _ 02.05.17 06.05.17 07.05.17 06.05.17 03.05.17 04.05.17 02.05.17 - 02.05.17 01.05.17 01.05.17 07.05.17 06.05.17 02.05.17
_ Max-Zeit 21:13 16:36 21:36 07:11 02:52 15:14 13:46 - 13:24 12:33 12:34 11:51 16:45 15:45
Maximum _ 24,9 C 19,1 C 58 % 98 % 1019,5 hPa 9,4 l/m 20,9 km/h
S (4 Bft)
- 0,08 h 5,8 UV-I 1013 W/m 12,6 C 19,1 C 32,2 km/h
S (5 Bft)
Durchschnitt _ 24,2 C 9,7 C 53 % 83 % 1013,9 hPa #22,6 l/m 2,2 km/h (1 Bft) O-NO #51:30 h 1,9 UV-I 224 W/m 6,6 C 9,4 C 4,7 km/h (1 Bft)